sensor_id;sensor_type;location;lat;lon;timestamp;temperature;humidity
17252;DHT22;8742;51.716;8.790;2022-11-14T00:02:08;5.20;99.90
17252;DHT22;8742;51.716;8.790;2022-11-14T00:04:34;5.20;99.90
17252;DHT22;8742;51.716;8.790;2022-11-14T00:07:03;5.10;99.90
17252;DHT22;8742;51.716;8.790;2022-11-14T00:09:29;5.10;99.90
17252;DHT22;8742;51.716;8.790;2022-11-14T00:11:56;5.10;99.90
17252;DHT22;8742;51.716;8.790;2022-11-14T00:14:23;5.10;99.90
17252;DHT22;8742;51.716;8.790;2022-11-14T00:16:50;5.00;99.90
17252;DHT22;8742;51.716;8.790;2022-11-14T00:19:17;5.00;99.90
17252;DHT22;8742;51.716;8.790;2022-11-14T00:21:43;5.00;99.90
17252;DHT22;8742;51.716;8.790;2022-11-14T00:24:12;5.00;99.90
17252;DHT22;8742;51.716;8.790;2022-11-14T00:26:39;4.90;99.90
17252;DHT22;8742;51.716;8.790;2022-11-14T00:29:06;4.90;99.90
17252;DHT22;8742;51.716;8.790;2022-11-14T00:31:32;4.90;99.90
17252;DHT22;8742;51.716;8.790;2022-11-14T00:33:59;4.90;99.90
17252;DHT22;8742;51.716;8.790;2022-11-14T00:36:26;5.00;99.90
17252;DHT22;8742;51.716;8.790;2022-11-14T00:38:53;5.00;99.90
17252;DHT22;8742;51.716;8.790;2022-11-14T00:41:21;5.00;99.90
17252;DHT22;8742;51.716;8.790;2022-11-14T00:43:48;5.00;99.90
17252;DHT22;8742;51.716;8.790;2022-11-14T00:46:15;5.00;99.90
17252;DHT22;8742;51.716;8.790;2022-11-14T00:48:42;5.00;99.90
17252;DHT22;8742;51.716;8.790;2022-11-14T00:51:09;5.00;99.90
17252;DHT22;8742;51.716;8.790;2022-11-14T00:53:37;5.00;99.90
17252;DHT22;8742;51.716;8.790;2022-11-14T00:56:04;5.00;99.90
17252;DHT22;8742;51.716;8.790;2022-11-14T00:58:32;5.10;99.90
17252;DHT22;8742;51.716;8.790;2022-11-14T01:00:59;5.00;99.90
17252;DHT22;8742;51.716;8.790;2022-11-14T01:03:26;5.00;99.90
17252;DHT22;8742;51.716;8.790;2022-11-14T01:05:53;5.00;99.90
17252;DHT22;8742;51.716;8.790;2022-11-14T01:08:20;5.00;99.90
17252;DHT22;8742;51.716;8.790;2022-11-14T01:10:49;5.00;99.90
17252;DHT22;8742;51.716;8.790;2022-11-14T01:13:17;5.00;99.90
17252;DHT22;8742;51.716;8.790;2022-11-14T01:15:47;5.00;99.90
17252;DHT22;8742;51.716;8.790;2022-11-14T01:18:17;5.00;99.90
17252;DHT22;8742;51.716;8.790;2022-11-14T01:20:45;4.90;99.90
17252;DHT22;8742;51.716;8.790;2022-11-14T01:23:14;4.90;99.90
17252;DHT22;8742;51.716;8.790;2022-11-14T01:25:42;4.90;99.90
17252;DHT22;8742;51.716;8.790;2022-11-14T01:28:10;4.90;99.90
17252;DHT22;8742;51.716;8.790;2022-11-14T01:30:38;4.90;99.90
17252;DHT22;8742;51.716;8.790;2022-11-14T01:33:06;4.90;99.90
17252;DHT22;8742;51.716;8.790;2022-11-14T01:35:35;4.90;99.90
17252;DHT22;8742;51.716;8.790;2022-11-14T01:38:03;4.80;99.90
17252;DHT22;8742;51.716;8.790;2022-11-14T01:40:31;4.80;99.90
17252;DHT22;8742;51.716;8.790;2022-11-14T01:43:26;4.80;99.90
17252;DHT22;8742;51.716;8.790;2022-11-14T01:45:56;4.70;99.90
17252;DHT22;8742;51.716;8.790;2022-11-14T01:48:34;4.70;99.90
17252;DHT22;8742;51.716;8.790;2022-11-14T01:51:09;4.70;99.90
17252;DHT22;8742;51.716;8.790;2022-11-14T01:53:38;4.60;99.90
17252;DHT22;8742;51.716;8.790;2022-11-14T01:56:06;4.60;99.90
17252;DHT22;8742;51.716;8.790;2022-11-14T01:58:37;4.50;99.90
17252;DHT22;8742;51.716;8.790;2022-11-14T02:01:05;4.50;99.90
17252;DHT22;8742;51.716;8.790;2022-11-14T02:03:36;4.50;99.90
17252;DHT22;8742;51.716;8.790;2022-11-14T02:06:05;4.50;99.90
17252;DHT22;8742;51.716;8.790;2022-11-14T02:08:33;4.50;99.90
17252;DHT22;8742;51.716;8.790;2022-11-14T02:11:01;4.40;99.90
17252;DHT22;8742;51.716;8.790;2022-11-14T02:13:27;4.40;99.90
17252;DHT22;8742;51.716;8.790;2022-11-14T02:15:55;4.40;99.90
17252;DHT22;8742;51.716;8.790;2022-11-14T02:18:21;4.40;99.90
17252;DHT22;8742;51.716;8.790;2022-11-14T02:20:50;4.40;99.90
17252;DHT22;8742;51.716;8.790;2022-11-14T02:23:24;4.30;99.90
17252;DHT22;8742;51.716;8.790;2022-11-14T02:25:51;4.30;99.90
17252;DHT22;8742;51.716;8.790;2022-11-14T02:28:18;4.30;99.90
17252;DHT22;8742;51.716;8.790;2022-11-14T02:30:46;4.20;99.90
17252;DHT22;8742;51.716;8.790;2022-11-14T02:33:13;4.20;99.90
17252;DHT22;8742;51.716;8.790;2022-11-14T02:35:40;4.10;99.90
17252;DHT22;8742;51.716;8.790;2022-11-14T02:38:09;4.10;99.90
17252;DHT22;8742;51.716;8.790;2022-11-14T02:40:35;4.10;99.90
17252;DHT22;8742;51.716;8.790;2022-11-14T02:43:02;4.10;99.90
17252;DHT22;8742;51.716;8.790;2022-11-14T02:45:29;4.00;99.90
17252;DHT22;8742;51.716;8.790;2022-11-14T02:47:56;4.00;99.90
17252;DHT22;8742;51.716;8.790;2022-11-14T02:50:23;4.00;99.90
17252;DHT22;8742;51.716;8.790;2022-11-14T02:52:50;4.00;99.90
17252;DHT22;8742;51.716;8.790;2022-11-14T02:55:19;3.90;99.90
17252;DHT22;8742;51.716;8.790;2022-11-14T02:57:46;3.90;99.90
17252;DHT22;8742;51.716;8.790;2022-11-14T03:00:14;3.90;99.90
17252;DHT22;8742;51.716;8.790;2022-11-14T03:02:41;3.80;99.90
17252;DHT22;8742;51.716;8.790;2022-11-14T03:05:08;3.80;99.90
17252;DHT22;8742;51.716;8.790;2022-11-14T03:07:34;3.80;99.90
17252;DHT22;8742;51.716;8.790;2022-11-14T03:10:01;3.80;99.90
17252;DHT22;8742;51.716;8.790;2022-11-14T03:12:29;3.80;99.90
17252;DHT22;8742;51.716;8.790;2022-11-14T03:14:56;3.80;99.90
17252;DHT22;8742;51.716;8.790;2022-11-14T03:17:23;3.80;99.90
17252;DHT22;8742;51.716;8.790;2022-11-14T03:19:50;3.80;99.90
17252;DHT22;8742;51.716;8.790;2022-11-14T03:22:17;3.80;99.90
17252;DHT22;8742;51.716;8.790;2022-11-14T03:24:43;3.80;99.90
17252;DHT22;8742;51.716;8.790;2022-11-14T03:27:10;3.80;99.90
17252;DHT22;8742;51.716;8.790;2022-11-14T03:29:38;3.80;99.90
17252;DHT22;8742;51.716;8.790;2022-11-14T03:32:05;3.80;99.90
17252;DHT22;8742;51.716;8.790;2022-11-14T03:34:32;3.70;99.90
17252;DHT22;8742;51.716;8.790;2022-11-14T03:36:59;3.70;99.90
17252;DHT22;8742;51.716;8.790;2022-11-14T03:39:26;3.70;99.90
17252;DHT22;8742;51.716;8.790;2022-11-14T03:41:53;3.70;99.90
17252;DHT22;8742;51.716;8.790;2022-11-14T03:44:20;3.70;99.90
17252;DHT22;8742;51.716;8.790;2022-11-14T03:46:48;3.60;99.90
17252;DHT22;8742;51.716;8.790;2022-11-14T03:49:16;3.60;99.90
17252;DHT22;8742;51.716;8.790;2022-11-14T03:51:43;3.60;99.90
17252;DHT22;8742;51.716;8.790;2022-11-14T03:54:10;3.50;99.90
17252;DHT22;8742;51.716;8.790;2022-11-14T03:56:37;3.40;99.90
17252;DHT22;8742;51.716;8.790;2022-11-14T03:59:03;3.40;99.90
17252;DHT22;8742;51.716;8.790;2022-11-14T04:01:30;3.30;99.90
17252;DHT22;8742;51.716;8.790;2022-11-14T04:03:58;3.30;99.90
17252;DHT22;8742;51.716;8.790;2022-11-14T04:06:25;3.20;99.90
17252;DHT22;8742;51.716;8.790;2022-11-14T04:08:52;3.20;99.90
17252;DHT22;8742;51.716;8.790;2022-11-14T04:11:21;3.10;99.90
17252;DHT22;8742;51.716;8.790;2022-11-14T04:13:48;3.00;99.90
17252;DHT22;8742;51.716;8.790;2022-11-14T04:16:15;2.90;99.90
17252;DHT22;8742;51.716;8.790;2022-11-14T04:18:42;2.90;99.90
17252;DHT22;8742;51.716;8.790;2022-11-14T04:21:10;2.90;99.90
17252;DHT22;8742;51.716;8.790;2022-11-14T04:23:37;2.90;99.90
17252;DHT22;8742;51.716;8.790;2022-11-14T04:26:04;3.00;99.90
17252;DHT22;8742;51.716;8.790;2022-11-14T04:28:30;3.10;99.90
17252;DHT22;8742;51.716;8.790;2022-11-14T04:30:57;3.20;99.90
17252;DHT22;8742;51.716;8.790;2022-11-14T04:33:25;3.20;99.90
17252;DHT22;8742;51.716;8.790;2022-11-14T04:35:52;3.30;99.90
17252;DHT22;8742;51.716;8.790;2022-11-14T04:38:20;3.30;99.90
17252;DHT22;8742;51.716;8.790;2022-11-14T04:40:48;3.30;99.90
17252;DHT22;8742;51.716;8.790;2022-11-14T04:43:15;3.30;99.90
17252;DHT22;8742;51.716;8.790;2022-11-14T04:45:42;3.30;99.90
17252;DHT22;8742;51.716;8.790;2022-11-14T04:48:09;3.30;99.90
17252;DHT22;8742;51.716;8.790;2022-11-14T04:50:36;3.40;99.90
17252;DHT22;8742;51.716;8.790;2022-11-14T04:53:03;3.40;99.90
17252;DHT22;8742;51.716;8.790;2022-11-14T04:55:31;3.40;99.90
17252;DHT22;8742;51.716;8.790;2022-11-14T04:57:58;3.40;99.90
17252;DHT22;8742;51.716;8.790;2022-11-14T05:00:25;3.40;99.90
17252;DHT22;8742;51.716;8.790;2022-11-14T05:02:52;3.40;99.90
17252;DHT22;8742;51.716;8.790;2022-11-14T05:05:19;3.30;99.90
17252;DHT22;8742;51.716;8.790;2022-11-14T05:07:46;3.30;99.90
17252;DHT22;8742;51.716;8.790;2022-11-14T05:10:13;3.30;99.90
17252;DHT22;8742;51.716;8.790;2022-11-14T05:12:41;3.30;99.90
17252;DHT22;8742;51.716;8.790;2022-11-14T05:15:08;3.30;99.90
17252;DHT22;8742;51.716;8.790;2022-11-14T05:17:35;3.30;99.90
17252;DHT22;8742;51.716;8.790;2022-11-14T05:20:03;3.40;99.90
17252;DHT22;8742;51.716;8.790;2022-11-14T05:22:30;3.40;99.90
17252;DHT22;8742;51.716;8.790;2022-11-14T05:24:56;3.40;99.90
17252;DHT22;8742;51.716;8.790;2022-11-14T05:27:23;3.40;99.90
17252;DHT22;8742;51.716;8.790;2022-11-14T05:29:51;3.40;99.90
17252;DHT22;8742;51.716;8.790;2022-11-14T05:32:19;3.40;99.90
17252;DHT22;8742;51.716;8.790;2022-11-14T05:34:46;3.40;99.90
17252;DHT22;8742;51.716;8.790;2022-11-14T05:37:13;3.30;99.90
17252;DHT22;8742;51.716;8.790;2022-11-14T05:39:40;3.40;99.90
17252;DHT22;8742;51.716;8.790;2022-11-14T05:42:07;3.40;99.90
17252;DHT22;8742;51.716;8.790;2022-11-14T05:44:33;3.40;99.90
17252;DHT22;8742;51.716;8.790;2022-11-14T05:47:02;3.30;99.90
17252;DHT22;8742;51.716;8.790;2022-11-14T05:49:28;3.30;99.90
17252;DHT22;8742;51.716;8.790;2022-11-14T05:51:55;3.30;99.90
17252;DHT22;8742;51.716;8.790;2022-11-14T05:54:22;3.30;99.90
17252;DHT22;8742;51.716;8.790;2022-11-14T05:56:49;3.30;99.90
17252;DHT22;8742;51.716;8.790;2022-11-14T05:59:16;3.30;99.90
17252;DHT22;8742;51.716;8.790;2022-11-14T06:01:42;3.30;99.90
17252;DHT22;8742;51.716;8.790;2022-11-14T06:04:12;3.30;99.90
17252;DHT22;8742;51.716;8.790;2022-11-14T06:06:39;3.30;99.90
17252;DHT22;8742;51.716;8.790;2022-11-14T06:09:06;3.40;99.90
17252;DHT22;8742;51.716;8.790;2022-11-14T06:11:33;3.40;99.90
17252;DHT22;8742;51.716;8.790;2022-11-14T06:14:00;3.40;99.90
17252;DHT22;8742;51.716;8.790;2022-11-14T06:16:27;3.40;99.90
17252;DHT22;8742;51.716;8.790;2022-11-14T06:18:54;3.40;99.90
17252;DHT22;8742;51.716;8.790;2022-11-14T06:21:23;3.40;99.90
17252;DHT22;8742;51.716;8.790;2022-11-14T06:23:51;3.40;99.90
17252;DHT22;8742;51.716;8.790;2022-11-14T06:26:20;3.40;99.90
17252;DHT22;8742;51.716;8.790;2022-11-14T06:28:48;3.50;99.90
17252;DHT22;8742;51.716;8.790;2022-11-14T06:31:15;3.50;99.90
17252;DHT22;8742;51.716;8.790;2022-11-14T06:33:42;3.50;99.90
17252;DHT22;8742;51.716;8.790;2022-11-14T06:36:10;3.50;99.90
17252;DHT22;8742;51.716;8.790;2022-11-14T06:38:39;3.50;99.90
17252;DHT22;8742;51.716;8.790;2022-11-14T06:41:07;3.50;99.90
17252;DHT22;8742;51.716;8.790;2022-11-14T06:43:35;3.50;99.90
17252;DHT22;8742;51.716;8.790;2022-11-14T06:46:03;3.50;99.90
17252;DHT22;8742;51.716;8.790;2022-11-14T06:48:30;3.50;99.90
17252;DHT22;8742;51.716;8.790;2022-11-14T06:50:58;3.50;99.90
17252;DHT22;8742;51.716;8.790;2022-11-14T06:53:27;3.50;99.90
17252;DHT22;8742;51.716;8.790;2022-11-14T06:55:57;3.50;99.90
17252;DHT22;8742;51.716;8.790;2022-11-14T06:58:25;3.60;99.90
17252;DHT22;8742;51.716;8.790;2022-11-14T07:00:53;3.50;99.90
17252;DHT22;8742;51.716;8.790;2022-11-14T07:03:20;3.50;99.90
17252;DHT22;8742;51.716;8.790;2022-11-14T07:05:47;3.50;99.90
17252;DHT22;8742;51.716;8.790;2022-11-14T07:08:14;3.60;99.90
17252;DHT22;8742;51.716;8.790;2022-11-14T07:10:41;3.60;99.90
17252;DHT22;8742;51.716;8.790;2022-11-14T07:13:09;3.60;99.90
17252;DHT22;8742;51.716;8.790;2022-11-14T07:15:36;3.70;99.90
17252;DHT22;8742;51.716;8.790;2022-11-14T07:18:04;3.70;99.90
17252;DHT22;8742;51.716;8.790;2022-11-14T07:20:31;3.70;99.90
17252;DHT22;8742;51.716;8.790;2022-11-14T07:22:57;3.70;99.90
17252;DHT22;8742;51.716;8.790;2022-11-14T07:25:24;3.80;99.90
17252;DHT22;8742;51.716;8.790;2022-11-14T07:27:51;3.80;99.90
17252;DHT22;8742;51.716;8.790;2022-11-14T07:30:19;3.80;99.90
17252;DHT22;8742;51.716;8.790;2022-11-14T07:32:50;3.90;99.90
17252;DHT22;8742;51.716;8.790;2022-11-14T07:35:19;3.90;99.90
17252;DHT22;8742;51.716;8.790;2022-11-14T07:37:46;3.90;99.90
17252;DHT22;8742;51.716;8.790;2022-11-14T07:40:13;3.90;99.90
17252;DHT22;8742;51.716;8.790;2022-11-14T07:42:40;4.00;99.90
17252;DHT22;8742;51.716;8.790;2022-11-14T07:45:08;4.00;99.90
17252;DHT22;8742;51.716;8.790;2022-11-14T07:47:36;4.10;99.90
17252;DHT22;8742;51.716;8.790;2022-11-14T07:50:03;4.10;99.90
17252;DHT22;8742;51.716;8.790;2022-11-14T07:52:30;4.20;99.90
17252;DHT22;8742;51.716;8.790;2022-11-14T07:54:58;4.20;99.90
17252;DHT22;8742;51.716;8.790;2022-11-14T07:57:25;4.20;99.90
17252;DHT22;8742;51.716;8.790;2022-11-14T07:59:51;4.30;99.90
17252;DHT22;8742;51.716;8.790;2022-11-14T08:02:18;4.30;99.90
17252;DHT22;8742;51.716;8.790;2022-11-14T08:04:46;4.40;99.90
17252;DHT22;8742;51.716;8.790;2022-11-14T08:07:13;4.50;99.90
17252;DHT22;8742;51.716;8.790;2022-11-14T08:09:40;4.50;99.90
17252;DHT22;8742;51.716;8.790;2022-11-14T08:12:07;4.60;99.90
17252;DHT22;8742;51.716;8.790;2022-11-14T08:14:33;4.70;99.90
17252;DHT22;8742;51.716;8.790;2022-11-14T08:17:00;4.80;99.90
17252;DHT22;8742;51.716;8.790;2022-11-14T08:19:27;4.80;99.90
17252;DHT22;8742;51.716;8.790;2022-11-14T08:21:55;4.90;99.90
17252;DHT22;8742;51.716;8.790;2022-11-14T08:24:22;5.00;99.90
17252;DHT22;8742;51.716;8.790;2022-11-14T08:26:49;5.20;99.90
17252;DHT22;8742;51.716;8.790;2022-11-14T08:29:16;5.60;99.90
17252;DHT22;8742;51.716;8.790;2022-11-14T08:31:44;6.40;99.90
17252;DHT22;8742;51.716;8.790;2022-11-14T08:34:11;7.30;99.90
17252;DHT22;8742;51.716;8.790;2022-11-14T08:36:38;8.00;99.90
17252;DHT22;8742;51.716;8.790;2022-11-14T08:39:06;8.60;99.90
17252;DHT22;8742;51.716;8.790;2022-11-14T08:41:33;9.00;99.90
17252;DHT22;8742;51.716;8.790;2022-11-14T08:43:59;9.40;99.90
17252;DHT22;8742;51.716;8.790;2022-11-14T08:46:26;9.70;99.90
17252;DHT22;8742;51.716;8.790;2022-11-14T08:48:53;10.10;99.90
17252;DHT22;8742;51.716;8.790;2022-11-14T08:51:20;10.20;99.90
17252;DHT22;8742;51.716;8.790;2022-11-14T08:53:47;10.50;99.90
17252;DHT22;8742;51.716;8.790;2022-11-14T08:56:15;10.80;99.90
17252;DHT22;8742;51.716;8.790;2022-11-14T08:58:42;11.00;99.90
17252;DHT22;8742;51.716;8.790;2022-11-14T09:01:09;11.20;99.90
17252;DHT22;8742;51.716;8.790;2022-11-14T09:03:35;11.40;99.90
17252;DHT22;8742;51.716;8.790;2022-11-14T09:06:03;11.30;99.90
17252;DHT22;8742;51.716;8.790;2022-11-14T09:08:30;11.40;99.90
17252;DHT22;8742;51.716;8.790;2022-11-14T09:10:59;11.60;99.90
17252;DHT22;8742;51.716;8.790;2022-11-14T09:13:27;11.70;99.90
17252;DHT22;8742;51.716;8.790;2022-11-14T09:15:54;11.90;99.90
17252;DHT22;8742;51.716;8.790;2022-11-14T09:18:21;11.90;99.90
17252;DHT22;8742;51.716;8.790;2022-11-14T09:20:48;12.00;99.90
17252;DHT22;8742;51.716;8.790;2022-11-14T09:23:14;12.20;99.90
17252;DHT22;8742;51.716;8.790;2022-11-14T09:25:41;12.40;99.90
17252;DHT22;8742;51.716;8.790;2022-11-14T09:28:09;12.50;99.90
17252;DHT22;8742;51.716;8.790;2022-11-14T09:30:37;12.70;99.90
17252;DHT22;8742;51.716;8.790;2022-11-14T09:33:05;12.80;99.90
17252;DHT22;8742;51.716;8.790;2022-11-14T09:35:33;13.00;99.90
17252;DHT22;8742;51.716;8.790;2022-11-14T09:38:01;13.20;99.90
17252;DHT22;8742;51.716;8.790;2022-11-14T09:40:29;13.40;99.90
17252;DHT22;8742;51.716;8.790;2022-11-14T09:43:27;13.60;99.90
17252;DHT22;8742;51.716;8.790;2022-11-14T09:45:58;13.80;99.90
17252;DHT22;8742;51.716;8.790;2022-11-14T09:48:27;14.10;99.90
17252;DHT22;8742;51.716;8.790;2022-11-14T09:51:04;14.30;99.90
17252;DHT22;8742;51.716;8.790;2022-11-14T09:53:36;14.50;99.90
17252;DHT22;8742;51.716;8.790;2022-11-14T09:56:10;14.60;99.90
17252;DHT22;8742;51.716;8.790;2022-11-14T09:58:39;14.90;99.90
17252;DHT22;8742;51.716;8.790;2022-11-14T10:01:15;14.90;99.90
17252;DHT22;8742;51.716;8.790;2022-11-14T10:03:50;15.20;99.90
17252;DHT22;8742;51.716;8.790;2022-11-14T10:06:25;15.50;99.90
17252;DHT22;8742;51.716;8.790;2022-11-14T10:09:13;15.80;99.90
17252;DHT22;8742;51.716;8.790;2022-11-14T10:11:51;16.20;99.90
17252;DHT22;8742;51.716;8.790;2022-11-14T10:14:54;16.30;99.90
17252;DHT22;8742;51.716;8.790;2022-11-14T10:17:41;16.20;99.90
17252;DHT22;8742;51.716;8.790;2022-11-14T10:20:14;16.10;99.90
17252;DHT22;8742;51.716;8.790;2022-11-14T10:23:04;16.00;99.90
17252;DHT22;8742;51.716;8.790;2022-11-14T10:25:40;16.00;99.90
17252;DHT22;8742;51.716;8.790;2022-11-14T10:28:24;15.90;99.90
17252;DHT22;8742;51.716;8.790;2022-11-14T10:30:59;16.00;99.90
17252;DHT22;8742;51.716;8.790;2022-11-14T10:33:40;16.10;99.90
17252;DHT22;8742;51.716;8.790;2022-11-14T10:36:16;16.30;99.90
17252;DHT22;8742;51.716;8.790;2022-11-14T10:38:50;16.40;99.90
17252;DHT22;8742;51.716;8.790;2022-11-14T10:41:18;16.70;99.90
17252;DHT22;8742;51.716;8.790;2022-11-14T10:43:46;17.00;99.90
17252;DHT22;8742;51.716;8.790;2022-11-14T10:46:17;17.20;99.90
17252;DHT22;8742;51.716;8.790;2022-11-14T10:48:48;17.30;99.90
17252;DHT22;8742;51.716;8.790;2022-11-14T10:51:19;17.70;99.90
17252;DHT22;8742;51.716;8.790;2022-11-14T10:53:51;18.00;99.90
17252;DHT22;8742;51.716;8.790;2022-11-14T10:56:20;18.10;99.30
17252;DHT22;8742;51.716;8.790;2022-11-14T10:58:47;18.10;98.70
17252;DHT22;8742;51.716;8.790;2022-11-14T11:01:35;18.20;98.20
17252;DHT22;8742;51.716;8.790;2022-11-14T11:04:19;18.20;97.40
17252;DHT22;8742;51.716;8.790;2022-11-14T11:06:46;18.10;97.10
17252;DHT22;8742;51.716;8.790;2022-11-14T11:09:15;18.10;97.20
17252;DHT22;8742;51.716;8.790;2022-11-14T11:12:02;18.10;97.10
17252;DHT22;8742;51.716;8.790;2022-11-14T11:14:29;18.20;96.80
17252;DHT22;8742;51.716;8.790;2022-11-14T11:17:15;18.40;96.30
17252;DHT22;8742;51.716;8.790;2022-11-14T11:19:47;18.40;95.60
17252;DHT22;8742;51.716;8.790;2022-11-14T11:22:27;18.40;96.50
17252;DHT22;8742;51.716;8.790;2022-11-14T11:24:54;18.60;95.20
17252;DHT22;8742;51.716;8.790;2022-11-14T11:27:23;18.50;95.60
17252;DHT22;8742;51.716;8.790;2022-11-14T11:30:06;18.50;96.50
17252;DHT22;8742;51.716;8.790;2022-11-14T11:32:33;18.80;95.60
17252;DHT22;8742;51.716;8.790;2022-11-14T11:35:05;18.90;96.40
17252;DHT22;8742;51.716;8.790;2022-11-14T11:37:37;19.10;95.60
17252;DHT22;8742;51.716;8.790;2022-11-14T11:40:14;19.20;94.70
17252;DHT22;8742;51.716;8.790;2022-11-14T11:42:45;19.30;94.90
17252;DHT22;8742;51.716;8.790;2022-11-14T11:45:15;19.40;95.70
17252;DHT22;8742;51.716;8.790;2022-11-14T11:47:47;19.60;95.40
17252;DHT22;8742;51.716;8.790;2022-11-14T11:50:18;19.80;95.40
17252;DHT22;8742;51.716;8.790;2022-11-14T11:52:51;19.80;95.40
17252;DHT22;8742;51.716;8.790;2022-11-14T11:55:25;20.00;94.60
17252;DHT22;8742;51.716;8.790;2022-11-14T11:57:59;20.20;93.60
17252;DHT22;8742;51.716;8.790;2022-11-14T12:00:27;20.20;93.70
17252;DHT22;8742;51.716;8.790;2022-11-14T12:02:54;20.20;94.70
17252;DHT22;8742;51.716;8.790;2022-11-14T12:05:28;20.30;94.00
17252;DHT22;8742;51.716;8.790;2022-11-14T12:08:00;20.40;94.10
17252;DHT22;8742;51.716;8.790;2022-11-14T12:10:31;20.40;91.60
17252;DHT22;8742;51.716;8.790;2022-11-14T12:13:22;20.40;93.70
17252;DHT22;8742;51.716;8.790;2022-11-14T12:16:02;20.40;93.10
17252;DHT22;8742;51.716;8.790;2022-11-14T12:18:55;20.40;93.00
17252;DHT22;8742;51.716;8.790;2022-11-14T12:21:50;20.50;92.50
17252;DHT22;8742;51.716;8.790;2022-11-14T12:24:49;20.40;92.90
17252;DHT22;8742;51.716;8.790;2022-11-14T12:27:24;20.40;91.50
17252;DHT22;8742;51.716;8.790;2022-11-14T12:30:17;20.30;91.40
17252;DHT22;8742;51.716;8.790;2022-11-14T12:32:50;20.30;91.60
17252;DHT22;8742;51.716;8.790;2022-11-14T12:35:21;20.30;90.90
17252;DHT22;8742;51.716;8.790;2022-11-14T12:37:53;20.00;91.20
17252;DHT22;8742;51.716;8.790;2022-11-14T12:40:26;19.20;90.90
17252;DHT22;8742;51.716;8.790;2022-11-14T12:42:54;18.10;91.70
17252;DHT22;8742;51.716;8.790;2022-11-14T12:45:57;16.90;93.00
17252;DHT22;8742;51.716;8.790;2022-11-14T12:48:32;16.00;94.10
17252;DHT22;8742;51.716;8.790;2022-11-14T12:51:01;15.20;95.40
17252;DHT22;8742;51.716;8.790;2022-11-14T12:53:45;14.70;96.40
17252;DHT22;8742;51.716;8.790;2022-11-14T12:56:36;14.20;97.60
17252;DHT22;8742;51.716;8.790;2022-11-14T12:59:23;13.70;97.90
17252;DHT22;8742;51.716;8.790;2022-11-14T13:02:14;13.40;98.60
17252;DHT22;8742;51.716;8.790;2022-11-14T13:04:50;13.10;99.60
17252;DHT22;8742;51.716;8.790;2022-11-14T13:07:28;12.90;99.90
17252;DHT22;8742;51.716;8.790;2022-11-14T13:10:13;12.80;99.90
17252;DHT22;8742;51.716;8.790;2022-11-14T13:12:42;12.60;99.90
17252;DHT22;8742;51.716;8.790;2022-11-14T13:15:47;12.50;99.90
17252;DHT22;8742;51.716;8.790;2022-11-14T13:18:32;12.40;99.90
17252;DHT22;8742;51.716;8.790;2022-11-14T13:21:20;12.30;99.90
17252;DHT22;8742;51.716;8.790;2022-11-14T13:24:05;12.20;99.90
17252;DHT22;8742;51.716;8.790;2022-11-14T13:26:48;12.10;99.90
17252;DHT22;8742;51.716;8.790;2022-11-14T13:32:50;12.10;99.90
17252;DHT22;8742;51.716;8.790;2022-11-14T13:35:22;12.00;99.90
17252;DHT22;8742;51.716;8.790;2022-11-14T13:38:01;12.00;99.90
17252;DHT22;8742;51.716;8.790;2022-11-14T13:40:36;12.00;99.90
17252;DHT22;8742;51.716;8.790;2022-11-14T13:43:13;11.90;99.90
17252;DHT22;8742;51.716;8.790;2022-11-14T13:45:51;11.90;99.90
17252;DHT22;8742;51.716;8.790;2022-11-14T13:51:16;11.80;99.90
17252;DHT22;8742;51.716;8.790;2022-11-14T13:53:44;11.70;99.90
17252;DHT22;8742;51.716;8.790;2022-11-14T13:56:23;11.70;99.90
17252;DHT22;8742;51.716;8.790;2022-11-14T14:01:56;11.70;99.90
17252;DHT22;8742;51.716;8.790;2022-11-14T14:04:39;11.60;99.90
17252;DHT22;8742;51.716;8.790;2022-11-14T14:07:13;11.70;99.90
17252;DHT22;8742;51.716;8.790;2022-11-14T14:09:51;11.60;99.90
17252;DHT22;8742;51.716;8.790;2022-11-14T14:12:35;11.60;99.90
17252;DHT22;8742;51.716;8.790;2022-11-14T14:15:16;11.50;99.90
17252;DHT22;8742;51.716;8.790;2022-11-14T14:17:53;11.50;99.90
17252;DHT22;8742;51.716;8.790;2022-11-14T14:20:30;11.50;99.90
17252;DHT22;8742;51.716;8.790;2022-11-14T14:23:05;11.50;99.90
17252;DHT22;8742;51.716;8.790;2022-11-14T14:25:41;11.50;99.90
17252;DHT22;8742;51.716;8.790;2022-11-14T14:28:19;11.40;99.90
17252;DHT22;8742;51.716;8.790;2022-11-14T14:31:03;11.40;99.90
17252;DHT22;8742;51.716;8.790;2022-11-14T14:33:39;11.30;99.90
17252;DHT22;8742;51.716;8.790;2022-11-14T14:36:22;11.30;99.90
17252;DHT22;8742;51.716;8.790;2022-11-14T14:38:50;11.30;99.90
17252;DHT22;8742;51.716;8.790;2022-11-14T14:41:18;11.20;99.90
17252;DHT22;8742;51.716;8.790;2022-11-14T14:43:50;11.20;99.90
17252;DHT22;8742;51.716;8.790;2022-11-14T14:46:27;11.20;99.90
17252;DHT22;8742;51.716;8.790;2022-11-14T14:48:55;11.10;99.90
17252;DHT22;8742;51.716;8.790;2022-11-14T14:51:30;11.00;99.90
17252;DHT22;8742;51.716;8.790;2022-11-14T14:53:57;11.00;99.90
17252;DHT22;8742;51.716;8.790;2022-11-14T14:56:25;10.90;99.90
17252;DHT22;8742;51.716;8.790;2022-11-14T14:58:52;10.80;99.90
17252;DHT22;8742;51.716;8.790;2022-11-14T15:01:26;10.80;99.90
17252;DHT22;8742;51.716;8.790;2022-11-14T15:04:02;10.70;99.90
17252;DHT22;8742;51.716;8.790;2022-11-14T15:06:35;10.70;99.90
17252;DHT22;8742;51.716;8.790;2022-11-14T15:09:12;10.60;99.90
17252;DHT22;8742;51.716;8.790;2022-11-14T15:11:41;10.50;99.90
17252;DHT22;8742;51.716;8.790;2022-11-14T15:14:13;10.50;99.90
17252;DHT22;8742;51.716;8.790;2022-11-14T15:16:40;10.40;99.90
17252;DHT22;8742;51.716;8.790;2022-11-14T15:19:11;10.40;99.90
17252;DHT22;8742;51.716;8.790;2022-11-14T15:21:39;10.30;99.90
17252;DHT22;8742;51.716;8.790;2022-11-14T15:24:13;10.30;99.90
17252;DHT22;8742;51.716;8.790;2022-11-14T15:26:42;10.30;99.90
17252;DHT22;8742;51.716;8.790;2022-11-14T15:29:16;10.30;99.90
17252;DHT22;8742;51.716;8.790;2022-11-14T15:31:46;10.30;99.90
17252;DHT22;8742;51.716;8.790;2022-11-14T15:34:27;10.30;99.90
17252;DHT22;8742;51.716;8.790;2022-11-14T15:37:19;10.20;99.90
17252;DHT22;8742;51.716;8.790;2022-11-14T15:39:47;10.20;99.90
17252;DHT22;8742;51.716;8.790;2022-11-14T15:42:16;10.20;99.90
17252;DHT22;8742;51.716;8.790;2022-11-14T15:44:44;10.10;99.90
17252;DHT22;8742;51.716;8.790;2022-11-14T15:47:12;10.10;99.90
17252;DHT22;8742;51.716;8.790;2022-11-14T15:49:59;10.00;99.90
17252;DHT22;8742;51.716;8.790;2022-11-14T15:52:39;9.90;99.90
17252;DHT22;8742;51.716;8.790;2022-11-14T15:55:12;9.80;99.90
17252;DHT22;8742;51.716;8.790;2022-11-14T15:57:40;9.70;99.90
17252;DHT22;8742;51.716;8.790;2022-11-14T16:00:19;9.70;99.90
17252;DHT22;8742;51.716;8.790;2022-11-14T16:02:55;9.70;99.90
17252;DHT22;8742;51.716;8.790;2022-11-14T16:05:40;9.60;99.90
17252;DHT22;8742;51.716;8.790;2022-11-14T16:08:09;9.60;99.90
17252;DHT22;8742;51.716;8.790;2022-11-14T16:10:36;9.50;99.90
17252;DHT22;8742;51.716;8.790;2022-11-14T16:13:03;9.50;99.90
17252;DHT22;8742;51.716;8.790;2022-11-14T16:15:30;9.50;99.90
17252;DHT22;8742;51.716;8.790;2022-11-14T16:18:04;9.50;99.90
17252;DHT22;8742;51.716;8.790;2022-11-14T16:20:43;9.50;99.90
17252;DHT22;8742;51.716;8.790;2022-11-14T16:23:18;9.50;99.90
17252;DHT22;8742;51.716;8.790;2022-11-14T16:25:45;9.50;99.90
17252;DHT22;8742;51.716;8.790;2022-11-14T16:28:13;9.50;99.90